createdAt,value
2024-01-28T00:00:16.228Z,95516.30
2024-01-28T00:01:22.266Z,95515.58
2024-01-28T00:02:08.465Z,95511.83
2024-01-28T00:02:42.934Z,95518.08
2024-01-28T00:03:18.798Z,95513.89
2024-01-28T00:03:53.879Z,95515.21
2024-01-28T00:05:01.902Z,95516.36
2024-01-28T00:05:35.666Z,95518.36
2024-01-28T00:06:10.588Z,95514.34
2024-01-28T00:06:44.448Z,95517.95
2024-01-28T00:07:23.205Z,95516.86
2024-01-28T00:08:00.294Z,95519.50
2024-01-28T00:08:43.314Z,95517.48
2024-01-28T00:09:18.140Z,95515.23
2024-01-28T00:09:51.759Z,95520.98
2024-01-28T00:10:25.839Z,95524.27
2024-01-28T00:11:02.285Z,95521.79
2024-01-28T00:11:36.019Z,95524.43
2024-01-28T00:12:25.387Z,95524.57
2024-01-28T00:12:59.685Z,95523.95
2024-01-28T00:13:36.030Z,95526.66
2024-01-28T00:14:09.755Z,95521.69
2024-01-28T00:14:43.570Z,95522.06
2024-01-28T00:15:21.266Z,95519.67
2024-01-28T00:19:45.153Z,95508.17
2024-01-28T00:20:19.110Z,95514.02
2024-01-28T00:20:52.903Z,95507.27
2024-01-28T00:21:27.126Z,95512.16
2024-01-28T00:22:02.304Z,95507.97
2024-01-28T00:22:36.413Z,95510.13
2024-01-28T00:23:24.816Z,95511.06
2024-01-28T00:24:00.977Z,95510.56
2024-01-28T00:24:35.207Z,95514.04
2024-01-28T00:25:09.807Z,95511.11
2024-01-28T00:25:45.311Z,95511.77
2024-01-28T00:26:20.180Z,95518.36
2024-01-28T00:27:07.210Z,95513.56
2024-01-28T00:27:41.103Z,95514.86
2024-01-28T00:28:14.761Z,95509.91
2024-01-28T00:28:48.539Z,95515.85
2024-01-28T00:29:30.206Z,95515.22
2024-01-28T00:30:05.674Z,95516.11
2024-01-28T00:30:50.901Z,95513.73
2024-01-28T00:31:25.430Z,95510.71
2024-01-28T00:32:00.636Z,95513.81
2024-01-28T00:32:34.955Z,95512.77
2024-01-28T00:33:08.876Z,95511.23
2024-01-28T00:33:42.712Z,95516.47
2024-01-28T00:34:30.299Z,95513.23
2024-01-28T00:35:05.682Z,95510.70
2024-01-28T00:35:39.490Z,95514.35
2024-01-28T00:36:17.400Z,95513.58
2024-01-28T00:36:51.145Z,95515.67
2024-01-28T00:37:25.734Z,95512.06
2024-01-28T00:38:13.544Z,95511.21
2024-01-28T00:38:47.372Z,95511.09
2024-01-28T00:39:23.141Z,95512.08
2024-01-28T00:39:56.703Z,95516.54
2024-01-28T00:40:30.991Z,95516.80
2024-01-28T00:41:05.335Z,95516.23
2024-01-28T00:41:56.780Z,95514.69
2024-01-28T00:42:30.793Z,95514.20
2024-01-28T00:43:05.085Z,95513.64
2024-01-28T00:43:38.977Z,95508.83
2024-01-28T00:44:13.012Z,95508.59
2024-01-28T00:44:46.605Z,95512.09
2024-01-28T00:45:41.830Z,95510.81
2024-01-28T00:46:17.856Z,95499.74
2024-01-28T00:46:56.907Z,95509.84
2024-01-28T00:47:30.659Z,95510.08
2024-01-28T00:48:04.659Z,95508.23
2024-01-28T00:49:16.618Z,95508.83
2024-01-28T00:49:50.856Z,95507.17
2024-01-28T00:50:25.190Z,95501.46
2024-01-28T00:51:01.494Z,95503.38
2024-01-28T00:51:35.579Z,95503.25
2024-01-28T00:52:09.586Z,95502.41
2024-01-28T00:52:58.332Z,95502.44
2024-01-28T00:53:32.147Z,95505.96
2024-01-28T00:54:06.029Z,95506.20
2024-01-28T00:54:40.009Z,95507.77
2024-01-28T00:55:14.250Z,95505.20
2024-01-28T00:55:50.476Z,95502.10
2024-01-28T00:56:40.250Z,95503.35
2024-01-28T00:57:14.562Z,95504.33
2024-01-28T00:57:48.159Z,95502.20
2024-01-28T00:58:22.298Z,95504.54
2024-01-28T00:58:55.874Z,95503.69
2024-01-28T00:59:29.761Z,95503.11
2024-01-28T01:00:17.769Z,95498.83
2024-01-28T01:00:51.675Z,95507.06
2024-01-28T01:01:25.885Z,95503.41
2024-01-28T01:01:59.518Z,95503.25
2024-01-28T01:02:33.036Z,95502.75
2024-01-28T01:03:06.465Z,95503.84
2024-01-28T01:04:00.382Z,95503.83
2024-01-28T01:04:34.591Z,95500.64
2024-01-28T01:05:08.604Z,95501.73
2024-01-28T01:05:44.299Z,95500.08
2024-01-28T01:06:19.074Z,95500.98
2024-01-28T01:06:52.947Z,95501.10
2024-01-28T01:07:40.890Z,95501.63
2024-01-28T01:08:14.752Z,95500.52
2024-01-28T01:08:48.325Z,95503.20
2024-01-28T01:09:22.481Z,95499.69
2024-01-28T01:09:57.735Z,95501.86
2024-01-28T01:10:31.036Z,95502.27
2024-01-28T01:11:18.437Z,95500.79
2024-01-28T01:11:51.860Z,95497.03
2024-01-28T01:12:25.747Z,95497.30
2024-01-28T01:12:59.699Z,95494.20
2024-01-28T01:13:33.953Z,95494.38
2024-01-28T01:14:07.545Z,95496.44
2024-01-28T01:14:59.141Z,95496.51
2024-01-28T01:15:33.112Z,95498.86
2024-01-28T01:16:06.963Z,95496.06
2024-01-28T01:16:40.265Z,95497.02
2024-01-28T01:17:13.850Z,95499.05
2024-01-28T01:17:50.962Z,95496.42
2024-01-28T01:18:40.650Z,95501.69
2024-01-28T01:19:14.270Z,95498.60
2024-01-28T01:19:48.625Z,95495.33
2024-01-28T01:20:30.574Z,95502.34
2024-01-28T01:21:05.532Z,95490.71
2024-01-28T01:21:39.119Z,95503.16
2024-01-28T01:22:27.966Z,95501.23
2024-01-28T01:23:01.945Z,95500.38
2024-01-28T01:23:35.464Z,95499.10
2024-01-28T01:24:09.516Z,95500.31
2024-01-28T01:24:43.434Z,95503.14
2024-01-28T01:25:17.182Z,95499.58
2024-01-28T01:26:05.710Z,95498.12
2024-01-28T01:26:39.485Z,95498.23
2024-01-28T01:27:13.296Z,95499.92
2024-01-28T01:27:50.384Z,95498.55
2024-01-28T01:28:25.822Z,95499.55
2024-01-28T01:28:59.473Z,95497.13
2024-01-28T01:29:45.529Z,95493.77
2024-01-28T01:30:19.949Z,95496.38
2024-01-28T01:30:53.727Z,95497.80
2024-01-28T01:31:27.433Z,95494.79
2024-01-28T01:32:00.910Z,95494.41
2024-01-28T01:32:37.208Z,95494.45
2024-01-28T01:33:26.404Z,95493.69
2024-01-28T01:34:00.262Z,95496.33
2024-01-28T01:34:34.525Z,95494.77
2024-01-28T01:35:13.204Z,95495.09
2024-01-28T01:35:46.990Z,95494.80
2024-01-28T01:36:21.398Z,95496.27
2024-01-28T01:37:08.657Z,95490.08
2024-01-28T01:37:44.445Z,95488.66
2024-01-28T01:38:18.768Z,95487.05
2024-01-28T01:38:52.662Z,95489.39
2024-01-28T01:39:26.289Z,95482.99
2024-01-28T01:40:00.258Z,95489.02
2024-01-28T01:40:57.287Z,95481.36
2024-01-28T01:41:31.087Z,95486.95
2024-01-28T01:42:04.842Z,95487.04
2024-01-28T01:42:39.932Z,95484.43
2024-01-28T01:43:13.637Z,95481.02
2024-01-28T01:43:47.227Z,95482.14
2024-01-28T01:44:30.363Z,95487.61
2024-01-28T01:45:04.181Z,95484.67
2024-01-28T01:45:44.716Z,95487.09
2024-01-28T01:46:19.157Z,95487.34
2024-01-28T01:46:59.037Z,95489.89
2024-01-28T01:47:34.002Z,95490.00
2024-01-28T01:48:20.622Z,95483.04
2024-01-28T01:48:55.282Z,95485.02
2024-01-28T01:49:30.160Z,95482.31
2024-01-28T01:50:04.584Z,95488.80
2024-01-28T01:50:38.820Z,95489.01
2024-01-28T01:51:13.279Z,95488.73
2024-01-28T01:55:36.718Z,95478.01
2024-01-28T01:56:11.875Z,95479.39
2024-01-28T01:56:46.594Z,95477.54
2024-01-28T01:57:20.714Z,95478.81
2024-01-28T01:57:56.224Z,95480.02
2024-01-28T01:58:31.413Z,95480.42
2024-01-28T01:59:17.461Z,95471.88
2024-01-28T01:59:51.546Z,95472.08
2024-01-28T02:00:26.108Z,95475.80
2024-01-28T02:01:04.464Z,95477.33
2024-01-28T02:01:39.133Z,95473.83
2024-01-28T02:02:13.349Z,95473.84
2024-01-28T02:02:57.242Z,95472.34
2024-01-28T02:03:32.445Z,95476.98
2024-01-28T02:04:07.150Z,95477.36
2024-01-28T02:04:41.360Z,95479.49
2024-01-28T02:05:17.549Z,95475.10
2024-01-28T02:05:52.016Z,95476.34
2024-01-28T02:06:38.183Z,95472.16
2024-01-28T02:07:12.186Z,95473.01
2024-01-28T02:07:46.015Z,95473.50
2024-01-28T02:08:20.263Z,95471.84
2024-01-28T02:08:54.424Z,95465.99
2024-01-28T02:09:28.840Z,95467.29
2024-01-28T02:10:21.276Z,95470.15
2024-01-28T02:10:55.093Z,95472.77
2024-01-28T02:11:30.162Z,95472.63
2024-01-28T02:12:04.018Z,95471.94
2024-01-28T02:12:38.172Z,95469.98
2024-01-28T02:13:12.193Z,95470.48
2024-01-28T02:13:59.487Z,95471.18
2024-01-28T02:14:33.538Z,95475.60
2024-01-28T02:15:11.901Z,95471.79
2024-01-28T02:15:49.752Z,95475.20
2024-01-28T02:16:25.454Z,95474.27
2024-01-28T02:17:00.964Z,95471.56
2024-01-28T02:17:45.148Z,95474.20
2024-01-28T02:18:19.090Z,95474.40
2024-01-28T02:18:53.439Z,95473.36
2024-01-28T02:19:29.975Z,95475.85
2024-01-28T02:20:04.314Z,95472.88
2024-01-28T02:20:38.322Z,95473.92
2024-01-28T02:21:26.821Z,95472.39
2024-01-28T02:22:01.013Z,95474.33
2024-01-28T02:22:34.951Z,95466.35
2024-01-28T02:23:09.189Z,95470.58
2024-01-28T02:23:42.982Z,95474.95
2024-01-28T02:24:16.696Z,95470.67
2024-01-28T02:25:11.723Z,95471.42
2024-01-28T02:25:54.848Z,95465.16
2024-01-28T02:26:28.880Z,95470.59
2024-01-28T02:27:03.102Z,95471.63
2024-01-28T02:27:37.840Z,95471.13
2024-01-28T02:28:48.903Z,95469.69
2024-01-28T02:29:22.473Z,95470.70
2024-01-28T02:29:56.486Z,95475.25
2024-01-28T02:30:31.251Z,95474.33
2024-01-28T02:31:05.612Z,95472.33
2024-01-28T02:31:39.315Z,95472.42
2024-01-28T02:32:33.195Z,95476.44
2024-01-28T02:33:07.355Z,95478.76
2024-01-28T02:33:41.232Z,95476.43
2024-01-28T02:34:15.022Z,95479.73
2024-01-28T02:34:48.780Z,95480.14
2024-01-28T02:35:22.321Z,95476.16
2024-01-28T02:36:10.565Z,95475.95
2024-01-28T02:36:44.277Z,95474.51
2024-01-28T02:37:21.165Z,95474.38
2024-01-28T02:37:55.491Z,95478.12
2024-01-28T02:38:29.681Z,95479.33
2024-01-28T02:39:03.500Z,95476.50
2024-01-28T02:39:51.617Z,95478.31
2024-01-28T02:40:25.616Z,95478.55
2024-01-28T02:41:00.746Z,95480.05
2024-01-28T02:41:34.637Z,95479.72
2024-01-28T02:42:10.630Z,95477.15
2024-01-28T02:42:45.440Z,95481.71
2024-01-28T02:43:37.798Z,95479.94
2024-01-28T02:44:11.399Z,95484.48
2024-01-28T02:44:45.119Z,95481.84
2024-01-28T02:45:20.206Z,95477.19
2024-01-28T02:45:58.691Z,95482.73
2024-01-28T02:47:16.502Z,95483.98
2024-01-28T02:47:51.578Z,95481.17
2024-01-28T02:48:26.223Z,95483.15
2024-01-28T02:49:00.325Z,95483.03
2024-01-28T02:49:34.698Z,95481.23
2024-01-28T02:50:09.251Z,95481.02
2024-01-28T02:50:56.458Z,95481.91
2024-01-28T02:51:30.649Z,95483.61
2024-01-28T02:52:05.067Z,95480.91
2024-01-28T02:52:38.908Z,95478.23
2024-01-28T02:53:13.773Z,95482.73
2024-01-28T02:53:47.969Z,95486.88
2024-01-28T02:54:34.848Z,95482.05
2024-01-28T02:55:09.548Z,95485.83
2024-01-28T02:55:43.917Z,95483.39
2024-01-28T02:56:18.072Z,95483.70
2024-01-28T02:56:53.570Z,95482.23
2024-01-28T02:57:27.193Z,95484.09
2024-01-28T03:01:55.435Z,95480.98
2024-01-28T03:02:29.089Z,95482.23
2024-01-28T03:03:05.391Z,95482.20
2024-01-28T03:03:39.645Z,95481.34
2024-01-28T03:04:15.151Z,95480.20
2024-01-28T03:04:49.214Z,95481.80
2024-01-28T03:05:36.943Z,95479.33
2024-01-28T03:06:12.705Z,95480.63
2024-01-28T03:06:47.235Z,95481.33
2024-01-28T03:07:21.001Z,95482.33
2024-01-28T03:07:55.250Z,95484.96
2024-01-28T03:08:28.834Z,95483.11
2024-01-28T03:09:16.277Z,95485.73
2024-01-28T03:09:52.138Z,95485.33
2024-01-28T03:10:26.007Z,95487.52
2024-01-28T03:11:00.391Z,95487.74
2024-01-28T03:11:36.037Z,95488.05
2024-01-28T03:12:11.089Z,95491.20
2024-01-28T03:12:59.381Z,95486.12
2024-01-28T03:13:35.942Z,95489.58
2024-01-28T03:14:10.122Z,95490.50
2024-01-28T03:14:44.449Z,95488.97
2024-01-28T03:15:19.752Z,95488.39
2024-01-28T03:15:55.564Z,95488.17
2024-01-28T03:16:50.805Z,95487.73
2024-01-28T03:17:26.199Z,95489.09
2024-01-28T03:18:01.388Z,95489.73
2024-01-28T03:18:35.209Z,95491.50
2024-01-28T03:19:09.147Z,95487.92
2024-01-28T03:20:22.063Z,95498.15
2024-01-28T03:20:56.431Z,95497.70
2024-01-28T03:21:30.655Z,95497.67
2024-01-28T03:22:04.664Z,95501.71
2024-01-28T03:22:38.085Z,95501.30
2024-01-28T03:23:11.828Z,95502.30
2024-01-28T03:23:59.942Z,95500.92
2024-01-28T03:24:33.592Z,95505.12
2024-01-28T03:25:07.513Z,95505.39
2024-01-28T03:25:40.891Z,95501.96
2024-01-28T03:26:14.561Z,95503.50
2024-01-28T03:26:49.036Z,95501.05
2024-01-28T03:27:45.645Z,95499.23
2024-01-28T03:28:19.752Z,95501.59
2024-01-28T03:28:53.445Z,95502.05
2024-01-28T03:29:27.224Z,95495.27
2024-01-28T03:30:01.247Z,95495.04
2024-01-28T03:30:35.346Z,95500.90
2024-01-28T03:31:19.891Z,95498.33
2024-01-28T03:31:54.456Z,95489.81
2024-01-28T03:32:29.190Z,95497.75
2024-01-28T03:33:03.301Z,95497.40
2024-01-28T03:33:37.099Z,95498.00
2024-01-28T03:34:10.798Z,95496.86
2024-01-28T03:34:59.080Z,95496.35
2024-01-28T03:35:32.678Z,95497.81
2024-01-28T03:36:06.955Z,95500.92
2024-01-28T03:36:41.292Z,95501.36
2024-01-28T03:37:15.394Z,95496.06
2024-01-28T03:37:49.050Z,95502.98
2024-01-28T03:38:43.176Z,95500.27
2024-01-28T03:39:17.193Z,95503.69
2024-01-28T03:39:51.229Z,95503.13
2024-01-28T03:40:25.255Z,95507.23
2024-01-28T03:40:59.414Z,95501.15
2024-01-28T03:41:33.485Z,95503.27
2024-01-28T03:42:21.694Z,95503.59
2024-01-28T03:42:56.023Z,95503.48
2024-01-28T03:43:30.044Z,95506.45
2024-01-28T03:44:04.488Z,95502.50
2024-01-28T03:44:38.341Z,95504.45
2024-01-28T03:45:12.687Z,95503.94
2024-01-28T03:45:58.721Z,95501.90
2024-01-28T03:46:39.612Z,95502.81
2024-01-28T03:47:21.235Z,95497.98
2024-01-28T03:47:55.187Z,95502.52
2024-01-28T03:48:29.591Z,95501.96
2024-01-28T03:49:05.493Z,95499.30
2024-01-28T03:49:55.065Z,95498.71
2024-01-28T03:50:29.134Z,95498.25
2024-01-28T03:51:03.561Z,95498.44
2024-01-28T03:51:37.692Z,95498.19
2024-01-28T03:52:11.520Z,95495.39
2024-01-28T03:52:45.114Z,95494.43
2024-01-28T03:53:36.681Z,95493.09
2024-01-28T03:54:10.197Z,95496.83
2024-01-28T03:54:44.172Z,95495.33
2024-01-28T03:55:17.900Z,95497.45
2024-01-28T03:55:54.439Z,95494.48
2024-01-28T03:56:28.162Z,95495.48
2024-01-28T03:57:18.628Z,95496.95
2024-01-28T03:57:56.469Z,95495.27
2024-01-28T03:58:30.844Z,95498.14
2024-01-28T03:59:05.021Z,95494.80
2024-01-28T03:59:42.107Z,95494.77
2024-01-28T04:00:16.794Z,95497.52
2024-01-28T04:01:02.024Z,95499.13
2024-01-28T04:01:35.904Z,95498.63
2024-01-28T04:02:10.122Z,95498.73
2024-01-28T04:02:45.931Z,95499.08
2024-01-28T04:03:21.433Z,95492.54
2024-01-28T04:03:59.006Z,95499.29
2024-01-28T04:04:46.637Z,95496.00
2024-01-28T04:05:21.371Z,95498.43
2024-01-28T04:05:56.800Z,95500.22
2024-01-28T04:06:30.869Z,95501.05
2024-01-28T04:07:05.866Z,95496.35
2024-01-28T04:07:40.122Z,95502.38
2024-01-28T04:08:24.574Z,95494.23
2024-01-28T04:08:58.621Z,95501.95
2024-01-28T04:09:32.450Z,95499.66
2024-01-28T04:10:06.557Z,95501.02
2024-01-28T04:10:40.239Z,95498.13
2024-01-28T04:11:13.960Z,95501.83
2024-01-28T04:12:01.856Z,95501.35
2024-01-28T04:12:37.210Z,95501.91
2024-01-28T04:13:13.533Z,95504.30
2024-01-28T04:13:47.062Z,95500.52
2024-01-28T04:14:20.570Z,95501.23
2024-01-28T04:14:54.121Z,95501.84
2024-01-28T04:15:47.213Z,95503.77
2024-01-28T04:16:22.378Z,95502.98
2024-01-28T04:16:56.658Z,95504.00
2024-01-28T04:17:33.577Z,95503.70
2024-01-28T04:18:11.583Z,95502.05
2024-01-28T04:18:45.467Z,95502.08
2024-01-28T04:19:32.991Z,95498.45
2024-01-28T04:20:07.151Z,95501.71
2024-01-28T04:20:41.228Z,95501.85
2024-01-28T04:21:15.805Z,95505.20
2024-01-28T04:21:49.969Z,95506.48
2024-01-28T04:22:24.370Z,95503.88
2024-01-28T04:23:16.721Z,95505.05
2024-01-28T04:23:50.448Z,95506.70
2024-01-28T04:24:24.281Z,95505.30
2024-01-28T04:24:58.171Z,95509.48
2024-01-28T04:25:31.755Z,95508.42
2024-01-28T04:26:05.590Z,95509.20
2024-01-28T04:26:55.079Z,95509.13
2024-01-28T04:27:29.678Z,95509.34
2024-01-28T04:28:03.875Z,95512.27
2024-01-28T04:28:37.495Z,95513.16
2024-01-28T04:29:12.466Z,95513.94
2024-01-28T04:29:46.084Z,95513.68
2024-01-28T04:30:33.236Z,95511.19
2024-01-28T04:31:09.430Z,95512.17
2024-01-28T04:31:44.295Z,95510.73
2024-01-28T04:32:19.133Z,95509.87
2024-01-28T04:33:03.646Z,95500.66
2024-01-28T04:34:22.168Z,95510.53
2024-01-28T04:34:56.157Z,95508.11
2024-01-28T04:35:31.085Z,95509.02
2024-01-28T04:36:07.434Z,95506.08
2024-01-28T04:36:41.460Z,95507.98
2024-01-28T04:37:15.329Z,95506.46
2024-01-28T04:38:03.407Z,95510.73
2024-01-28T04:38:37.722Z,95508.05
2024-01-28T04:39:11.959Z,95511.60
2024-01-28T04:39:46.127Z,95509.33
2024-01-28T04:40:20.218Z,95514.17
2024-01-28T04:40:55.131Z,95512.41
2024-01-28T04:41:42.865Z,95509.23
2024-01-28T04:42:16.635Z,95515.84
2024-01-28T04:42:50.790Z,95517.05
2024-01-28T04:43:25.297Z,95516.50
2024-01-28T04:43:59.533Z,95515.88
2024-01-28T04:44:34.399Z,95520.00
2024-01-28T04:45:22.955Z,95518.67
2024-01-28T04:45:57.514Z,95520.75
2024-01-28T04:46:31.743Z,95519.73
2024-01-28T04:47:05.605Z,95519.38
2024-01-28T04:47:40.530Z,95517.33
2024-01-28T04:48:18.082Z,95518.63
2024-01-28T04:49:05.906Z,95517.52
2024-01-28T04:49:40.895Z,95519.68
2024-01-28T04:50:15.952Z,95516.05
2024-01-28T04:50:50.086Z,95514.20
2024-01-28T04:51:24.615Z,95518.58
2024-01-28T04:51:59.607Z,95515.64
2024-01-28T04:52:45.952Z,95516.90
2024-01-28T04:53:20.012Z,95514.86
2024-01-28T04:53:53.785Z,95517.71
2024-01-28T04:54:27.692Z,95517.59
2024-01-28T04:55:01.597Z,95516.64
2024-01-28T04:55:35.638Z,95518.06
2024-01-28T04:56:26.999Z,95516.47
2024-01-28T04:57:02.813Z,95518.94
2024-01-28T04:57:36.951Z,95517.59
2024-01-28T04:58:10.932Z,95518.02
2024-01-28T04:58:46.267Z,95519.20
2024-01-28T04:59:21.326Z,95518.73
2024-01-28T05:00:13.367Z,95516.91
2024-01-28T05:00:47.897Z,95516.23
2024-01-28T05:01:22.414Z,95516.64
2024-01-28T05:01:56.586Z,95523.74
2024-01-28T05:02:30.455Z,95521.50
2024-01-28T05:03:04.506Z,95522.66
2024-01-28T05:07:31.212Z,95525.21
2024-01-28T05:08:05.548Z,95521.79
2024-01-28T05:08:39.314Z,95522.57
2024-01-28T05:09:13.738Z,95526.23
2024-01-28T05:09:47.923Z,95523.35
2024-01-28T05:10:21.858Z,95524.67
2024-01-28T05:11:09.644Z,95524.09
2024-01-28T05:11:44.371Z,95520.80
2024-01-28T05:12:20.219Z,95526.41
2024-01-28T05:12:54.029Z,95526.43
2024-01-28T05:13:27.550Z,95526.90
2024-01-28T05:14:01.663Z,95524.82
2024-01-28T05:14:49.611Z,95526.11
2024-01-28T05:15:23.771Z,95531.02
2024-01-28T05:15:58.322Z,95529.08
2024-01-28T05:16:32.701Z,95527.99
2024-01-28T05:17:06.781Z,95528.00
2024-01-28T05:17:41.640Z,95533.64
2024-01-28T05:18:31.778Z,95531.45
2024-01-28T05:19:08.371Z,95530.64
2024-01-28T05:19:43.390Z,95533.73
2024-01-28T05:20:18.114Z,95531.73
2024-01-28T05:20:51.828Z,95527.35
2024-01-28T05:21:25.627Z,95529.43
2024-01-28T05:22:21.809Z,95530.41
2024-01-28T05:23:01.114Z,95525.21
2024-01-28T05:23:34.801Z,95530.52
2024-01-28T05:24:08.821Z,95529.08
2024-01-28T05:24:43.938Z,95530.35
2024-01-28T05:25:57.885Z,95534.52
2024-01-28T05:26:32.777Z,95535.23
2024-01-28T05:27:06.496Z,95533.77
2024-01-28T05:27:40.916Z,95531.90
2024-01-28T05:28:14.691Z,95533.48
2024-01-28T05:28:48.219Z,95531.17
2024-01-28T05:29:40.675Z,95529.13
2024-01-28T05:30:14.707Z,95526.98
2024-01-28T05:30:48.575Z,95526.58
2024-01-28T05:31:22.741Z,95528.25
2024-01-28T05:31:56.739Z,95525.13
2024-01-28T05:32:31.265Z,95528.61
2024-01-28T05:33:18.892Z,95527.79
2024-01-28T05:33:54.300Z,95530.77
2024-01-28T05:34:29.577Z,95530.55
2024-01-28T05:35:05.644Z,95533.56
2024-01-28T05:35:39.339Z,95531.77
2024-01-28T05:36:14.988Z,95532.33
2024-01-28T05:37:01.668Z,95532.35
2024-01-28T05:37:38.780Z,95532.91
2024-01-28T05:38:12.907Z,95530.77
2024-01-28T05:38:46.421Z,95534.38
2024-01-28T05:39:20.387Z,95531.69
2024-01-28T05:39:54.144Z,95528.89
2024-01-28T05:40:42.960Z,95531.56
2024-01-28T05:41:17.890Z,95530.70
2024-01-28T05:41:52.116Z,95528.15
2024-01-28T05:42:26.241Z,95529.14
2024-01-28T05:43:00.488Z,95533.13
2024-01-28T05:43:34.555Z,95536.22
2024-01-28T05:44:22.448Z,95535.66
2024-01-28T05:44:56.054Z,95540.48
2024-01-28T05:45:29.472Z,95538.73
2024-01-28T05:46:03.578Z,95538.23
2024-01-28T05:46:37.276Z,95542.64
2024-01-28T05:47:14.222Z,95539.45
2024-01-28T05:48:03.447Z,95538.23
2024-01-28T05:48:38.118Z,95536.20
2024-01-28T05:49:13.341Z,95538.44
2024-01-28T05:49:47.257Z,95536.96
2024-01-28T05:50:21.006Z,95541.64
2024-01-28T05:50:54.854Z,95541.48
2024-01-28T05:51:41.015Z,95536.57
2024-01-28T05:52:16.210Z,95537.88
2024-01-28T05:52:52.390Z,95537.27
2024-01-28T05:53:26.414Z,95534.04
2024-01-28T05:54:00.556Z,95537.98
2024-01-28T05:54:35.122Z,95539.82
2024-01-28T05:55:21.188Z,95544.48
2024-01-28T05:55:55.517Z,95538.09
2024-01-28T05:56:29.850Z,95541.89
2024-01-28T05:57:03.677Z,95541.16
2024-01-28T05:57:37.917Z,95543.76
2024-01-28T05:58:11.847Z,95538.09
2024-01-28T05:58:59.217Z,95536.23
2024-01-28T05:59:33.403Z,95540.25
2024-01-28T06:00:08.152Z,95540.06
2024-01-28T06:00:42.915Z,95543.82
2024-01-28T06:01:16.798Z,95541.09
2024-01-28T06:01:51.589Z,95543.69
2024-01-28T06:02:41.480Z,95542.58
2024-01-28T06:03:15.742Z,95546.41
2024-01-28T06:03:50.536Z,95548.27
2024-01-28T06:04:24.956Z,95545.73
2024-01-28T06:05:00.374Z,95548.56
2024-01-28T06:05:35.413Z,95544.60
2024-01-28T06:06:23.370Z,95548.85
2024-01-28T06:06:57.254Z,95547.37
2024-01-28T06:07:31.300Z,95549.92
2024-01-28T06:08:07.037Z,95547.45
2024-01-28T06:08:42.633Z,95545.09
2024-01-28T06:09:16.288Z,95546.44
2024-01-28T06:10:05.806Z,95544.11
2024-01-28T06:10:39.360Z,95548.71
2024-01-28T06:11:13.465Z,95547.79
2024-01-28T06:11:47.396Z,95545.94
2024-01-28T06:12:21.113Z,95539.27
2024-01-28T06:12:54.415Z,95552.17
2024-01-28T06:13:42.931Z,95550.84
2024-01-28T06:14:16.420Z,95548.95
2024-01-28T06:14:50.069Z,95554.93
2024-01-28T06:15:23.995Z,95554.70
2024-01-28T06:15:57.768Z,95556.45
2024-01-28T06:16:31.397Z,95555.65
2024-01-28T06:17:24.223Z,95552.19
2024-01-28T06:17:59.004Z,95556.09
2024-01-28T06:18:33.054Z,95557.28
2024-01-28T06:19:06.920Z,95557.85
2024-01-28T06:19:40.596Z,95554.55
2024-01-28T06:20:14.447Z,95554.96
2024-01-28T06:21:02.266Z,95551.13
2024-01-28T06:21:36.015Z,95550.27
2024-01-28T06:22:10.076Z,95553.23
2024-01-28T06:22:44.035Z,95556.27
2024-01-28T06:23:17.736Z,95552.23
2024-01-28T06:23:51.674Z,95556.27
2024-01-28T06:24:44.185Z,95552.01
2024-01-28T06:25:17.901Z,95561.70
2024-01-28T06:25:51.452Z,95563.55
2024-01-28T06:26:25.362Z,95559.52
2024-01-28T06:27:01.283Z,95560.46
2024-01-28T06:27:40.005Z,95560.63
2024-01-28T06:28:25.674Z,95563.09
2024-01-28T06:28:59.587Z,95564.44
2024-01-28T06:29:34.267Z,95564.73
2024-01-28T06:30:10.454Z,95565.15
2024-01-28T06:30:45.622Z,95565.30
2024-01-28T06:31:22.213Z,95564.38
2024-01-28T06:32:07.752Z,95566.92
2024-01-28T06:32:41.534Z,95565.00
2024-01-28T06:33:17.410Z,95566.83
2024-01-28T06:33:51.803Z,95561.64
2024-01-28T06:34:25.854Z,95564.37
2024-01-28T06:34:59.441Z,95569.11
2024-01-28T06:35:47.369Z,95565.17
2024-01-28T06:36:21.843Z,95564.67
2024-01-28T06:36:55.322Z,95562.80
2024-01-28T06:37:29.193Z,95569.06
2024-01-28T06:38:09.948Z,95568.50
2024-01-28T06:38:48.017Z,95563.17
2024-01-28T06:39:31.996Z,95565.37
2024-01-28T06:40:06.325Z,95564.04
2024-01-28T06:40:40.177Z,95564.65
2024-01-28T06:41:15.654Z,95569.63
2024-01-28T06:41:51.046Z,95566.77
2024-01-28T06:42:26.656Z,95561.23
2024-01-28T06:43:14.249Z,95565.64
2024-01-28T06:43:50.305Z,95565.94
2024-01-28T06:44:27.007Z,95566.21
2024-01-28T06:45:01.182Z,95563.75
2024-01-28T06:45:36.365Z,95564.13
2024-01-28T06:46:49.474Z,95564.13
2024-01-28T06:47:23.204Z,95566.31
2024-01-28T06:47:57.646Z,95560.98
2024-01-28T06:48:33.038Z,95565.55
2024-01-28T06:49:07.765Z,95560.73
2024-01-28T06:49:43.168Z,95561.65
2024-01-28T06:50:31.173Z,95559.63
2024-01-28T06:51:06.522Z,95557.51
2024-01-28T06:51:46.175Z,95559.02
2024-01-28T06:52:19.815Z,95556.27
2024-01-28T06:52:53.360Z,95557.73
2024-01-28T06:53:27.155Z,95555.96
2024-01-28T06:54:11.682Z,95553.02
2024-01-28T06:54:47.324Z,95549.86
2024-01-28T06:55:21.602Z,95549.87
2024-01-28T06:55:55.547Z,95550.17
2024-01-28T06:56:29.480Z,95550.95
2024-01-28T06:57:03.240Z,95549.34
2024-01-28T06:57:51.226Z,95550.27
2024-01-28T06:58:24.836Z,95550.53
2024-01-28T06:59:01.662Z,95551.70
2024-01-28T06:59:36.866Z,95546.48
2024-01-28T07:00:12.346Z,95551.29
2024-01-28T07:00:46.614Z,95549.90
2024-01-28T07:01:32.277Z,95548.65
2024-01-28T07:02:06.388Z,95551.78
2024-01-28T07:02:40.770Z,95554.67
2024-01-28T07:03:14.667Z,95554.81
2024-01-28T07:03:52.365Z,95558.09
2024-01-28T07:04:27.335Z,95555.27
2024-01-28T07:05:14.493Z,95560.27
2024-01-28T07:05:48.337Z,95561.11
2024-01-28T07:06:22.465Z,95558.02
2024-01-28T07:06:56.641Z,95559.60
2024-01-28T07:07:30.876Z,95557.60
2024-01-28T07:08:07.230Z,95557.77
2024-01-28T07:08:55.721Z,95562.60
2024-01-28T07:09:30.885Z,95559.58
2024-01-28T07:10:06.697Z,95558.17
2024-01-28T07:10:40.430Z,95561.02
2024-01-28T07:11:14.818Z,95560.92
2024-01-28T07:11:49.758Z,95557.75
2024-01-28T07:12:36.564Z,95558.40
2024-01-28T07:13:11.356Z,95557.41
2024-01-28T07:13:45.289Z,95557.61
2024-01-28T07:14:19.109Z,95558.73
2024-01-28T07:14:53.556Z,95558.02
2024-01-28T07:15:28.381Z,95561.02
2024-01-28T07:16:14.862Z,95558.02
2024-01-28T07:16:48.769Z,95560.75
2024-01-28T07:17:22.407Z,95559.64
2024-01-28T07:17:56.110Z,95559.11
2024-01-28T07:18:30.998Z,95561.77
2024-01-28T07:19:05.855Z,95559.89
2024-01-28T07:19:54.467Z,95557.89
2024-01-28T07:20:28.867Z,95554.73
2024-01-28T07:21:03.908Z,95553.79
2024-01-28T07:21:37.945Z,95555.06
2024-01-28T07:22:13.355Z,95554.20
2024-01-28T07:22:47.585Z,95557.19
2024-01-28T07:23:31.518Z,95551.53
2024-01-28T07:24:07.917Z,95552.90
2024-01-28T07:24:42.932Z,95555.21
2024-01-28T07:25:17.820Z,95551.05
2024-01-28T07:25:51.743Z,95555.13
2024-01-28T07:26:26.904Z,95551.36
2024-01-28T07:27:16.645Z,95547.70
2024-01-28T07:27:50.983Z,95545.42
2024-01-28T07:28:24.423Z,95544.94
2024-01-28T07:28:58.208Z,95541.63
2024-01-28T07:29:31.738Z,95539.48
2024-01-28T07:30:12.312Z,95541.77
2024-01-28T07:31:01.254Z,95539.80
2024-01-28T07:31:35.188Z,95543.79
2024-01-28T07:32:15.031Z,95539.67
2024-01-28T07:32:49.785Z,95539.16